Dades meteomassalio
Diari Summary for Juny 7, 2017 Units:  English    Metric   Both
« Previous Day
Next Day »
Diari Semanal Mensual Anual Personalitzat
  Maxima: Minima: Mijana:
Temperatura: TemperatureC °F 12.6 °F 19.8 °F
Rosada: DewpointC °F 7.7 °F 11.1 °F
Humitat: Humidity % 35 % 59 %
Velocitat del vent: WindSpeedKMH mph 0.0 mph 10 mph
Racha vent: WindSpeedGustKMH mph - -
Vent:- - SSW
Pressio: PressurehPa in 1017.5 in -
Pluja: 0.0 in    
Historical Graphs
 
 
Tabular Data for Juny 7, 2017
Time Temperature Dew Point Pressure Wind Wind Speed Wind Gust Humidity Rainfall Rate (Hourly) solar Conditions
TemperatureC °F DewpointC °F PressurehPa in Calm     Humidity % HourlyPrecipMM in SolarRadiationWatts/m^2 W/m2 Conditions
00:01 17.4 °F 10.9 °F 1019.5 in WNW 5.6 mph 5.6 mph 66 % 0.0 in 0.0 W/m2 CLR
00:06 17.3 °F 10.9 °F 1019.5 in WNW 11.1 mph 11.1 mph 66 % 0.0 in 0.0 W/m2 CLR
00:11 17.2 °F 10.8 °F 1019.5 in WNW 7.4 mph 7.4 mph 66 % 0.0 in 0.0 W/m2 CLR
00:16 17.2 °F 10.6 °F 1019.9 in West 7.4 mph 7.4 mph 65 % 0.0 in 0.0 W/m2 CLR
00:21 17.1 °F 10.5 °F 1019.9 in WNW 11.1 mph 11.1 mph 65 % 0.0 in 0.0 W/m2 CLR
00:26 17.1 °F 10.2 °F 1019.9 in NW 18.5 mph 18.5 mph 64 % 0.0 in 0.0 W/m2 CLR
00:31 17.0 °F 10.1 °F 1019.9 in WNW 18.5 mph 18.5 mph 64 % 0.0 in 0.0 W/m2 CLR
00:37 16.9 °F 10.3 °F 1019.9 in WNW 20.4 mph 20.4 mph 65 % 0.0 in 0.0 W/m2 CLR
00:42 16.9 °F 10.3 °F 1019.9 in WNW 20.4 mph 20.4 mph 65 % 0.0 in 0.0 W/m2 CLR
00:47 16.9 °F 10.3 °F 1019.9 in WNW 20.4 mph 20.4 mph 65 % 0.0 in 0.0 W/m2 CLR
00:52 16.8 °F 10.2 °F 1019.9 in West 13.0 mph 13.0 mph 65 % 0.0 in 0.0 W/m2 CLR
00:57 16.8 °F 10.7 °F 1020.2 in West 11.1 mph 11.1 mph 67 % 0.0 in 0.0 W/m2 CLR
01:02 16.7 °F 10.6 °F 1020.2 in West 20.4 mph 20.4 mph 67 % 0.0 in 0.0 W/m2 CLR
01:07 16.7 °F 10.6 °F 1020.2 in West 18.5 mph 18.5 mph 67 % 0.0 in 0.0 W/m2 CLR
01:12 16.6 °F 10.4 °F 1020.2 in West 20.4 mph 20.4 mph 67 % 0.0 in 0.0 W/m2 CLR
01:17 16.6 °F 10.4 °F 1020.2 in WSW 18.5 mph 18.5 mph 67 % 0.0 in 0.0 W/m2 CLR
01:22 16.5 °F 10.3 °F 1020.2 in WNW 22.2 mph 22.2 mph 67 % 0.0 in 0.0 W/m2 CLR
01:27 16.4 °F 10.2 °F 1020.2 in West 18.5 mph 18.5 mph 67 % 0.0 in 0.0 W/m2 CLR
01:32 16.3 °F 9.9 °F 1020.2 in West 24.1 mph 24.1 mph 66 % 0.0 in 0.0 W/m2 CLR
01:37 16.3 °F 9.9 °F 1019.9 in West 22.2 mph 22.2 mph 66 % 0.0 in 0.0 W/m2 CLR
01:42 16.2 °F 9.6 °F 1020.2 in West 20.4 mph 20.4 mph 65 % 0.0 in 0.0 W/m2 CLR
01:47 16.1 °F 9.5 °F 1020.2 in West 20.4 mph 20.4 mph 65 % 0.0 in 0.0 W/m2 CLR
01:52 16.1 °F 9.2 °F 1020.2 in West 20.4 mph 20.4 mph 64 % 0.0 in 0.0 W/m2 CLR
01:57 16.0 °F 8.9 °F 1020.2 in West 24.1 mph 24.1 mph 63 % 0.0 in 0.0 W/m2 CLR
02:02 15.9 °F 8.6 °F 1020.2 in WSW 18.5 mph 18.5 mph 62 % 0.0 in 0.0 W/m2 CLR
02:07 15.8 °F 8.6 °F 1020.2 in WSW 9.3 mph 9.3 mph 62 % 0.0 in 0.0 W/m2 CLR
02:12 15.8 °F 8.3 °F 1020.5 in WSW 11.3 mph 11.3 mph 61 % 0.0 in 0.0 W/m2 CLR
02:17 15.7 °F 8.4 °F 1020.5 in West 8.0 mph 8.0 mph 62 % 0.0 in 0.0 W/m2 CLR
02:22 15.6 °F 8.8 °F 1020.5 in West 8.0 mph 8.0 mph 64 % 0.0 in 0.0 W/m2 CLR
02:27 15.5 °F 8.9 °F 1020.5 in WNW 9.3 mph 9.3 mph 65 % 0.0 in 0.0 W/m2 CLR
02:32 15.4 °F 9.1 °F 1020.5 in West 3.2 mph 3.2 mph 66 % 0.0 in 0.0 W/m2 CLR
02:37 15.5 °F 9.4 °F 1020.5 in WSW 11.3 mph 11.3 mph 67 % 0.0 in 0.0 W/m2 CLR
02:42 15.5 °F 9.4 °F 1020.5 in West 9.3 mph 9.3 mph 67 % 0.0 in 0.0 W/m2 CLR
02:47 15.5 °F 9.4 °F 1020.5 in West 13.0 mph 13.0 mph 67 % 0.0 in 0.0 W/m2 CLR
02:52 15.4 °F 9.6 °F 1020.5 in WNW 20.9 mph 20.9 mph 68 % 0.0 in 0.0 W/m2 CLR
02:57 15.3 °F 9.2 °F 1020.5 in West 18.5 mph 18.5 mph 67 % 0.0 in 0.0 W/m2 CLR
03:02 15.3 °F 9.2 °F 1020.5 in WNW 20.4 mph 20.4 mph 67 % 0.0 in 0.0 W/m2 CLR
03:07 15.3 °F 8.9 °F 1020.5 in West 13.0 mph 13.0 mph 66 % 0.0 in 0.0 W/m2 CLR
03:12 15.2 °F 9.1 °F 1020.5 in WSW 9.3 mph 9.3 mph 67 % 0.0 in 0.0 W/m2 CLR
03:17 15.2 °F 8.8 °F 1020.5 in West 11.1 mph 11.1 mph 66 % 0.0 in 0.0 W/m2 CLR
03:22 15.1 °F 8.8 °F 1020.5 in WSW 9.3 mph 9.3 mph 66 % 0.0 in 0.0 W/m2 CLR
03:27 15.1 °F 8.7 °F 1020.5 in West 7.4 mph 7.4 mph 66 % 0.0 in 0.0 W/m2 CLR
03:32 15.0 °F 8.7 °F 1020.5 in WSW 18.5 mph 18.5 mph 66 % 0.0 in 0.0 W/m2 CLR
03:37 15.0 °F 8.4 °F 1020.5 in West 9.3 mph 9.3 mph 65 % 0.0 in 0.0 W/m2 CLR
03:42 14.9 °F 8.4 °F 1020.5 in West 19.3 mph 19.3 mph 65 % 0.0 in 0.0 W/m2 CLR
03:47 14.9 °F 8.4 °F 1020.9 in WSW 6.4 mph 6.4 mph 65 % 0.0 in 0.0 W/m2 CLR
03:52 14.8 °F 8.3 °F 1020.9 in West 5.6 mph 5.6 mph 65 % 0.0 in 0.0 W/m2 CLR
03:57 14.7 °F 8.4 °F 1020.9 in SW 18.5 mph 18.5 mph 66 % 0.0 in 0.0 W/m2 CLR
04:02 14.7 °F 8.2 °F 1020.9 in WSW 9.3 mph 9.3 mph 65 % 0.0 in 0.0 W/m2 CLR
04:07 14.6 °F 8.3 °F 1020.9 in WSW 11.1 mph 11.1 mph 66 % 0.0 in 0.0 W/m2 CLR
04:12 14.5 °F 8.2 °F 1020.9 in West 9.7 mph 9.7 mph 66 % 0.0 in 0.0 W/m2 CLR
04:17 14.4 °F 8.3 °F 1020.9 in WNW 13.0 mph 13.0 mph 67 % 0.0 in 0.0 W/m2 CLR
04:22 14.3 °F 8.3 °F 1020.9 in West 13.0 mph 13.0 mph 67 % 0.0 in 0.0 W/m2 CLR
04:27 14.3 °F 8.0 °F 1020.9 in West 16.1 mph 16.1 mph 66 % 0.0 in 0.0 W/m2 CLR
04:32 14.2 °F 7.9 °F 1020.9 in West 9.7 mph 9.7 mph 66 % 0.0 in 0.0 W/m2 CLR
04:37 14.2 °F 7.9 °F 1020.9 in WSW 18.5 mph 18.5 mph 66 % 0.0 in 0.0 W/m2 CLR
04:42 14.2 °F 7.9 °F 1021.2 in WSW 18.5 mph 18.5 mph 66 % 0.0 in 0.0 W/m2 CLR
04:47 14.2 °F 7.9 °F 1021.2 in WSW 16.7 mph 16.7 mph 66 % 0.0 in 0.0 W/m2 CLR
04:52 14.1 °F 8.0 °F 1021.2 in West 3.7 mph 3.7 mph 67 % 0.0 in 0.0 W/m2 CLR
04:57 13.9 °F 7.8 °F 1021.2 in WSW 7.4 mph 7.4 mph 67 % 0.0 in 0.0 W/m2 CLR
05:02 13.8 °F 7.8 °F 1021.2 in WSW 18.5 mph 18.5 mph 67 % 0.0 in 0.0 W/m2 CLR
05:07 13.8 °F 7.8 °F 1021.6 in WSW 9.3 mph 9.3 mph 67 % 0.0 in 0.0 W/m2 CLR
05:12 13.7 °F 7.9 °F 1021.2 in WSW 4.8 mph 4.8 mph 68 % 0.0 in 0.0 W/m2 CLR
05:17 13.6 °F 7.8 °F 1021.6 in WSW 4.8 mph 4.8 mph 68 % 0.0 in 0.0 W/m2 CLR
05:22 13.5 °F 7.7 °F 1021.6 in WSW 9.3 mph 9.3 mph 68 % 0.0 in 0.0 W/m2 CLR
05:27 13.4 °F 8.0 °F 1021.6 in WSW 5.6 mph 5.6 mph 70 % 0.0 in 0.0 W/m2 CLR
05:32 13.2 °F 7.9 °F 1021.6 in WSW 6.4 mph 6.4 mph 70 % 0.0 in 0.0 W/m2 CLR
05:37 13.2 °F 7.9 °F 1021.6 in WSW 11.1 mph 11.1 mph 70 % 0.0 in 0.0 W/m2 CLR
05:42 13.3 °F 7.7 °F 1021.6 in WSW 18.5 mph 18.5 mph 69 % 0.0 in 0.0 W/m2 CLR
05:47 13.3 °F 7.8 °F 1021.6 in WSW 9.3 mph 9.3 mph 69 % 0.0 in 0.0 W/m2 CLR
05:52 13.3 °F 7.8 °F 1021.6 in West 7.4 mph 7.4 mph 69 % 0.0 in 0.0 W/m2 CLR
05:57 13.4 °F 7.8 °F 1021.6 in WSW 11.1 mph 11.1 mph 69 % 0.0 in 0.0 W/m2 CLR
06:02 13.4 °F 7.9 °F 1021.6 in WSW 13.0 mph 13.0 mph 69 % 0.0 in 0.0 W/m2 CLR
06:07 13.4 °F 7.8 °F 1021.6 in WSW 3.7 mph 3.7 mph 69 % 0.0 in 0.0 W/m2 CLR
06:08 13.4 °F 7.8 °F 1021.6 in WSW 7.4 mph 7.4 mph 69 % 0.0 in 0.0 W/m2 CLR
06:13 13.3 °F 7.9 °F 1021.9 in WSW 9.7 mph 9.7 mph 70 % 0.0 in 0.0 W/m2 CLR
06:18 13.2 °F 7.9 °F 1021.9 in WSW 11.3 mph 11.3 mph 70 % 0.0 in 0.0 W/m2 OVC
06:23 13.2 °F 8.0 °F 1021.9 in West 9.7 mph 9.7 mph 71 % 0.0 in 0.0 W/m2 OVC
06:28 13.0 °F 7.9 °F 1021.9 in WSW 14.8 mph 14.8 mph 71 % 0.0 in 0.0 W/m2 OVC
06:33 12.9 °F 7.9 °F 1021.9 in WSW 13.0 mph 13.0 mph 72 % 0.0 in 5.0 W/m2 OVC
06:38 12.8 °F 7.8 °F 1021.9 in WSW 9.7 mph 9.7 mph 72 % 0.0 in 7.0 W/m2 BKN
06:43 12.7 °F 7.9 °F 1021.9 in WSW 9.3 mph 9.3 mph 73 % 0.0 in 11.0 W/m2 BKN
06:48 12.6 °F 7.9 °F 1021.9 in WSW 9.3 mph 9.3 mph 73 % 0.0 in 14.0 W/m2 BKN
06:53 12.6 °F 7.9 °F 1021.9 in WSW 7.4 mph 7.4 mph 73 % 0.0 in 16.0 W/m2 BKN
06:58 12.6 °F 8.1 °F 1022.2 in WSW 9.3 mph 9.3 mph 74 % 0.0 in 19.0 W/m2 BKN
06:59 12.6 °F 8.1 °F 1022.2 in WSW 9.7 mph 9.7 mph 74 % 0.0 in 19.0 W/m2 BKN
07:04 12.6 °F 8.1 °F 1022.2 in WSW 9.3 mph 9.3 mph 74 % 0.0 in 25.0 W/m2 BKN
07:09 12.7 °F 8.0 °F 1022.2 in Calm     73 % 0.0 in 35.0 W/m2 BKN
07:14 12.8 °F 8.1 °F 1022.2 in SW 9.3 mph 9.3 mph 73 % 0.0 in 44.0 W/m2 BKN
07:19 12.9 °F 8.2 °F 1022.2 in SW 5.6 mph 5.6 mph 73 % 0.0 in 54.0 W/m2 SCT
07:24 13.1 °F 8.1 °F 1022.2 in WSW 7.4 mph 7.4 mph 72 % 0.0 in 67.0 W/m2 FEW
07:29 13.2 °F 8.2 °F 1022.2 in SW 3.7 mph 3.7 mph 72 % 0.0 in 81.0 W/m2 FEW
07:34 13.3 °F 8.2 °F 1022.2 in SW 8.0 mph 8.0 mph 71 % 0.0 in 95.0 W/m2 FEW
07:39 13.5 °F 8.1 °F 1022.2 in WSW 13.0 mph 13.0 mph 70 % 0.0 in 107.0 W/m2 CLR
07:44 13.7 °F 8.1 °F 1022.2 in WSW 11.1 mph 11.1 mph 69 % 0.0 in 123.0 W/m2 CLR
07:49 13.8 °F 8.2 °F 1022.2 in West 18.5 mph 18.5 mph 69 % 0.0 in 139.0 W/m2 CLR
07:54 14.0 °F 8.4 °F 1022.2 in WSW 9.7 mph 9.7 mph 69 % 0.0 in 158.0 W/m2 CLR
07:59 14.2 °F 8.3 °F 1022.2 in West 12.9 mph 12.9 mph 68 % 0.0 in 174.0 W/m2 CLR
08:04 14.3 °F 8.0 °F 1022.6 in WSW 9.3 mph 9.3 mph 66 % 0.0 in 193.0 W/m2 CLR
08:09 14.4 °F 8.1 °F 1022.6 in West 18.5 mph 18.5 mph 66 % 0.0 in 209.0 W/m2 CLR
08:14 14.5 °F 8.2 °F 1022.6 in WSW 11.1 mph 11.1 mph 66 % 0.0 in 225.0 W/m2 CLR
08:19 14.6 °F 8.1 °F 1022.6 in WSW 14.8 mph 14.8 mph 65 % 0.0 in 241.0 W/m2 CLR
08:24 14.7 °F 8.2 °F 1022.6 in SW 14.8 mph 14.8 mph 65 % 0.0 in 255.0 W/m2 CLR
08:29 14.8 °F 8.3 °F 1022.6 in West 9.3 mph 9.3 mph 65 % 0.0 in 272.0 W/m2 CLR
08:34 14.9 °F 8.1 °F 1022.6 in West 13.0 mph 13.0 mph 64 % 0.0 in 279.0 W/m2 CLR
08:39 15.1 °F 8.6 °F 1022.6 in WSW 11.3 mph 11.3 mph 65 % 0.0 in 302.0 W/m2 CLR
08:44 15.2 °F 8.2 °F 1022.6 in WSW 13.0 mph 13.0 mph 63 % 0.0 in 316.0 W/m2 CLR
08:49 15.3 °F 8.3 °F 1022.6 in NW 18.5 mph 18.5 mph 63 % 0.0 in 336.0 W/m2 CLR
08:54 15.3 °F 8.1 °F 1022.6 in West 17.7 mph 17.7 mph 62 % 0.0 in 352.0 W/m2 CLR
08:59 15.4 °F 8.4 °F 1022.6 in West 24.1 mph 24.1 mph 63 % 0.0 in 366.0 W/m2 CLR
09:04 15.6 °F 8.6 °F 1022.6 in West 18.5 mph 18.5 mph 63 % 0.0 in 380.0 W/m2 CLR
09:09 15.8 °F 8.8 °F 1022.6 in NW 18.5 mph 18.5 mph 63 % 0.0 in 396.0 W/m2 CLR
09:14 15.9 °F 8.4 °F 1022.6 in West 20.4 mph 20.4 mph 61 % 0.0 in 413.0 W/m2 CLR
09:19 15.9 °F 8.4 °F 1022.6 in WNW 16.7 mph 16.7 mph 61 % 0.0 in 429.0 W/m2 CLR
09:24 16.2 °F 8.9 °F 1022.9 in WNW 18.5 mph 18.5 mph 62 % 0.0 in 443.0 W/m2 CLR
09:29 16.4 °F 8.6 °F 1022.9 in West 18.5 mph 18.5 mph 60 % 0.0 in 461.0 W/m2 CLR
09:35 16.6 °F 9.0 °F 1022.9 in West 25.9 mph 25.9 mph 61 % 0.0 in 475.0 W/m2 CLR
09:40 16.6 °F 8.8 °F 1022.9 in West 18.5 mph 18.5 mph 60 % 0.0 in 489.0 W/m2 CLR
09:45 16.8 °F 9.0 °F 1022.9 in West 24.1 mph 24.1 mph 60 % 0.0 in 504.0 W/m2 CLR
09:50 16.9 °F 8.9 °F 1022.9 in West 9.7 mph 9.7 mph 59 % 0.0 in 519.0 W/m2 CLR
09:55 16.9 °F 8.9 °F 1022.9 in NW 18.5 mph 18.5 mph 59 % 0.0 in 536.0 W/m2 CLR
09:56 16.9 °F 8.8 °F 1022.9 in WNW 18.5 mph 18.5 mph 59 % 0.0 in 538.0 W/m2 CLR
10:01 17.0 °F 9.2 °F 1022.9 in NW 9.7 mph 9.7 mph 60 % 0.0 in 552.0 W/m2 CLR
10:06 17.2 °F 8.9 °F 1022.9 in WNW 22.2 mph 22.2 mph 58 % 0.0 in 564.0 W/m2 CLR
10:11 17.2 °F 8.8 °F 1022.9 in West 18.5 mph 18.5 mph 58 % 0.0 in 578.0 W/m2 CLR
10:16 17.2 °F 9.4 °F 1022.9 in NNW 22.2 mph 22.2 mph 60 % 0.0 in 594.0 W/m2 CLR
10:21 17.4 °F 9.3 °F 1022.9 in West 5.6 mph 5.6 mph 59 % 0.0 in 608.0 W/m2 CLR
10:22 17.5 °F 9.4 °F 1022.9 in WNW 7.4 mph 7.4 mph 59 % 0.0 in 612.0 W/m2 CLR
10:28 17.5 °F 9.2 °F 1022.9 in NW 19.3 mph 19.3 mph 58 % 0.0 in 628.0 W/m2 CLR
10:33 17.7 °F 9.3 °F 1022.9 in WNW 20.9 mph 20.9 mph 58 % 0.0 in 640.0 W/m2 CLR
10:38 17.8 °F 9.4 °F 1022.9 in NW 20.4 mph 20.4 mph 58 % 0.0 in 656.0 W/m2 CLR
10:43 17.8 °F 9.4 °F 1022.9 in West 12.9 mph 12.9 mph 58 % 0.0 in 668.0 W/m2 CLR
10:48 17.8 °F 9.4 °F 1022.6 in West 8.0 mph 8.0 mph 58 % 0.0 in 677.0 W/m2 CLR
10:53 17.9 °F 9.6 °F 1022.6 in WNW 11.1 mph 11.1 mph 58 % 0.0 in 689.0 W/m2 CLR
10:58 18.2 °F 9.6 °F 1022.6 in WSW 9.3 mph 9.3 mph 57 % 0.0 in 703.0 W/m2 CLR
11:03 18.4 °F 10.2 °F 1022.6 in NW 12.9 mph 12.9 mph 59 % 0.0 in 717.0 W/m2 CLR
11:08 18.8 °F 10.1 °F 1022.6 in NNW 14.5 mph 14.5 mph 57 % 0.0 in 728.0 W/m2 CLR
11:13 19.1 °F 10.1 °F 1022.6 in West 11.1 mph 11.1 mph 56 % 0.0 in 740.0 W/m2 CLR
11:18 19.1 °F 10.4 °F 1022.6 in NW 16.7 mph 16.7 mph 57 % 0.0 in 751.0 W/m2 CLR
11:23 19.0 °F 10.3 °F 1022.2 in NW 1.9 mph 1.9 mph 57 % 0.0 in 761.0 W/m2 CLR
11:28 19.2 °F 10.4 °F 1022.2 in NW 5.6 mph 5.6 mph 57 % 0.0 in 772.0 W/m2 CLR
11:38 19.6 °F 10.3 °F 1022.2 in NW 5.6 mph 5.6 mph 55 % 0.0 in 793.0 W/m2 CLR
11:43 19.6 °F 10.3 °F 1022.2 in WSW 13.0 mph 13.0 mph 55 % 0.0 in 805.0 W/m2 CLR
11:48 19.6 °F 10.6 °F 1022.2 in WSW 5.6 mph 5.6 mph 56 % 0.0 in 814.0 W/m2 CLR
11:53 19.9 °F 10.6 °F 1022.2 in West 9.3 mph 9.3 mph 55 % 0.0 in 821.0 W/m2 CLR
11:58 20.0 °F 10.7 °F 1022.2 in SW 11.1 mph 11.1 mph 55 % 0.0 in 831.0 W/m2 CLR
12:03 20.2 °F 10.8 °F 1022.2 in WNW 9.7 mph 9.7 mph 55 % 0.0 in 840.0 W/m2 CLR
12:08 20.2 °F 10.9 °F 1022.2 in West 8.0 mph 8.0 mph 55 % 0.0 in 851.0 W/m2 CLR
12:13 20.4 °F 11.1 °F 1021.9 in Calm     55 % 0.0 in 856.0 W/m2 CLR
12:18 20.8 °F 10.8 °F 1021.9 in SSW 4.8 mph 4.8 mph 53 % 0.0 in 860.0 W/m2 CLR
12:23 21.1 °F 11.4 °F 1021.9 in West 7.4 mph 7.4 mph 54 % 0.0 in 870.0 W/m2 CLR
12:28 20.8 °F 10.9 °F 1021.9 in West 6.4 mph 6.4 mph 53 % 0.0 in 882.0 W/m2 CLR
12:33 21.1 °F 11.2 °F 1021.9 in West 1.9 mph   53 % 0.0 in 884.0 W/m2 CLR
12:38 21.1 °F 10.6 °F 1021.6 in Calm     51 % 0.0 in 893.0 W/m2 CLR
12:43 21.3 °F 11.3 °F 1021.6 in Calm     53 % 0.0 in 902.0 W/m2 CLR
12:48 21.7 °F 10.8 °F 1021.6 in WSW 7.4 mph 7.4 mph 50 % 0.0 in 907.0 W/m2 CLR
12:53 21.7 °F 11.4 °F 1021.6 in WSW 8.0 mph 8.0 mph 52 % 0.0 in 912.0 W/m2 CLR
12:58 21.8 °F 10.9 °F 1021.2 in SW 13.0 mph 13.0 mph 50 % 0.0 in 918.0 W/m2 CLR
13:03 21.8 °F 10.9 °F 1021.2 in SW 5.6 mph 5.6 mph 50 % 0.0 in 923.0 W/m2 CLR
13:08 22.2 °F 11.9 °F 1021.2 in WSW 1.9 mph 1.9 mph 52 % 0.0 in 928.0 W/m2 CLR
13:13 22.6 °F 11.7 °F 1021.2 in WSW 5.6 mph 5.6 mph 50 % 0.0 in 933.0 W/m2 CLR
13:18 23.1 °F 12.1 °F 1021.2 in NNW 14.8 mph 14.8 mph 50 % 0.0 in 933.0 W/m2 CLR
13:23 23.1 °F 11.5 °F 1021.2 in WNW 9.3 mph 9.3 mph 48 % 0.0 in 935.0 W/m2 CLR
13:28 23.2 °F 11.6 °F 1021.2 in NNE 5.6 mph   48 % 0.0 in 940.0 W/m2 CLR
13:33 23.4 °F 11.8 °F 1020.9 in North 5.6 mph 5.6 mph 48 % 0.0 in 942.0 W/m2 CLR
13:38 23.2 °F 11.3 °F 1020.9 in Calm     47 % 0.0 in 944.0 W/m2 CLR
13:43 23.1 °F 11.5 °F 1020.9 in East 7.4 mph 7.4 mph 48 % 0.0 in 946.0 W/m2 CLR
13:48 23.2 °F 11.6 °F 1020.9 in Calm     48 % 0.0 in 947.0 W/m2 CLR
13:53 23.4 °F 11.8 °F 1020.5 in Calm     48 % 0.0 in 949.0 W/m2 CLR
13:58 23.9 °F 12.2 °F 1020.5 in West 3.2 mph 3.2 mph 48 % 0.0 in 951.0 W/m2 CLR
14:03 24.2 °F 12.2 °F 1020.5 in SE 5.6 mph 5.6 mph 47 % 0.0 in 949.0 W/m2 CLR
14:08 24.2 °F 12.2 °F 1020.5 in ENE 9.3 mph 9.3 mph 47 % 0.0 in 949.0 W/m2 CLR
14:13 24.3 °F 12.6 °F 1020.5 in Calm     48 % 0.0 in 951.0 W/m2 CLR
14:18 24.7 °F 12.6 °F 1020.2 in SE 5.6 mph 5.6 mph 47 % 0.0 in 949.0 W/m2 CLR
14:23 24.8 °F 12.1 °F 1020.2 in South 5.6 mph   45 % 0.0 in 949.0 W/m2 CLR
14:28 25.1 °F 12.0 °F 1020.2 in ESE 7.4 mph 7.4 mph 44 % 0.0 in 946.0 W/m2 CLR
14:33 24.6 °F 11.6 °F 1020.2 in ENE 7.4 mph   44 % 0.0 in 942.0 W/m2 CLR
14:38 24.4 °F 11.7 °F 1019.9 in Calm     45 % 0.0 in 939.0 W/m2 CLR
14:43 24.6 °F 12.2 °F 1019.9 in Calm     46 % 0.0 in 933.0 W/m2 CLR
14:48 24.8 °F 11.7 °F 1019.9 in Calm     44 % 0.0 in 932.0 W/m2 CLR
14:53 24.9 °F 11.8 °F 1019.9 in Calm     44 % 0.0 in 928.0 W/m2 CLR
14:58 25.3 °F 11.8 °F 1019.9 in Calm     43 % 0.0 in 925.0 W/m2 CLR
15:03 25.4 °F 12.3 °F 1019.5 in ESE 5.6 mph 5.6 mph 44 % 0.0 in 919.0 W/m2 CLR
15:08 25.6 °F 12.1 °F 1019.5 in ESE 8.0 mph 8.0 mph 43 % 0.0 in 916.0 W/m2 CLR
15:13 25.7 °F 12.2 °F 1019.5 in ENE 13.0 mph 13.0 mph 43 % 0.0 in 909.0 W/m2 CLR
15:18 25.8 °F 11.9 °F 1019.5 in Calm     42 % 0.0 in 904.0 W/m2 CLR
15:23 26.0 °F 12.8 °F 1019.5 in East 14.8 mph 14.8 mph 44 % 0.0 in 896.0 W/m2 CLR
15:28 25.9 °F 12.1 °F 1019.2 in NNE 3.7 mph   42 % 0.0 in 891.0 W/m2 CLR
15:33 26.1 °F 11.8 °F 1019.2 in North 13.0 mph   41 % 0.0 in 886.0 W/m2 CLR
15:38 26.2 °F 12.3 °F 1019.2 in Calm     42 % 0.0 in 884.0 W/m2 CLR
15:43 26.7 °F 12.3 °F 1019.2 in ENE 9.7 mph 9.7 mph 41 % 0.0 in 874.0 W/m2 CLR
15:48 26.6 °F 12.3 °F 1019.2 in ENE 11.1 mph 11.1 mph 41 % 0.0 in 865.0 W/m2 CLR
15:53 26.4 °F 11.7 °F 1019.2 in NNE 9.3 mph   40 % 0.0 in 854.0 W/m2 CLR
15:58 26.4 °F 12.1 °F 1019.2 in NE 7.4 mph 7.4 mph 41 % 0.0 in 846.0 W/m2 CLR
16:03 26.6 °F 12.6 °F 1019.2 in ENE 5.6 mph 5.6 mph 42 % 0.0 in 838.0 W/m2 CLR
16:08 26.6 °F 11.5 °F 1019.2 in ENE 13.0 mph 13.0 mph 39 % 0.0 in 828.0 W/m2 CLR
16:13 26.7 °F 12.4 °F 1018.8 in NE 5.6 mph 5.6 mph 41 % 0.0 in 819.0 W/m2 CLR
16:18 26.7 °F 12.0 °F 1018.8 in ENE 13.0 mph 13.0 mph 40 % 0.0 in 812.0 W/m2 CLR
16:23 26.9 °F 12.5 °F 1018.8 in North 8.0 mph 8.0 mph 41 % 0.0 in 803.0 W/m2 CLR
16:24 26.9 °F 12.6 °F 1018.8 in North 11.1 mph 11.1 mph 41 % 0.0 in 802.0 W/m2 CLR
16:29 27.1 °F 12.3 °F 1018.8 in NNE 13.0 mph 13.0 mph 40 % 0.0 in 789.0 W/m2 CLR
16:34 27.0 °F 11.9 °F 1018.8 in NE 11.1 mph 11.1 mph 39 % 0.0 in 779.0 W/m2 CLR
16:39 27.0 °F 11.9 °F 1018.8 in NNE 11.1 mph 11.1 mph 39 % 0.0 in 768.0 W/m2 CLR
16:44 27.1 °F 12.3 °F 1018.8 in NNE 13.0 mph 13.0 mph 40 % 0.0 in 759.0 W/m2 CLR
16:49 27.1 °F 11.6 °F 1018.5 in NE 7.4 mph 7.4 mph 38 % 0.0 in 747.0 W/m2 CLR
16:54 27.1 °F 11.5 °F 1018.5 in North 7.4 mph 7.4 mph 38 % 0.0 in 737.0 W/m2 CLR
16:59 27.1 °F 11.5 °F 1018.5 in NE 7.4 mph 7.4 mph 38 % 0.0 in 722.0 W/m2 CLR
17:04 27.0 °F 11.9 °F 1018.5 in NE 9.3 mph 9.3 mph 39 % 0.0 in 710.0 W/m2 CLR
17:09 27.2 °F 11.7 °F 1018.2 in NNE 11.1 mph 11.1 mph 38 % 0.0 in 700.0 W/m2 CLR
17:14 27.3 °F 12.2 °F 1018.2 in ENE 11.1 mph 11.1 mph 39 % 0.0 in 686.0 W/m2 CLR
17:19 27.4 °F 11.9 °F 1018.2 in NE 11.1 mph 11.1 mph 38 % 0.0 in 673.0 W/m2 CLR
17:24 27.6 °F 12.4 °F 1018.2 in NE 5.6 mph 5.6 mph 39 % 0.0 in 657.0 W/m2 CLR
17:29 27.6 °F 12.0 °F 1018.2 in ENE 13.0 mph 13.0 mph 38 % 0.0 in 640.0 W/m2 CLR
17:34 27.7 °F 11.7 °F 1018.2 in North 13.0 mph 13.0 mph 37 % 0.0 in 631.0 W/m2 CLR
17:39 27.6 °F 11.6 °F 1018.2 in ENE 13.0 mph 13.0 mph 37 % 0.0 in 619.0 W/m2 CLR
17:44 27.8 °F 12.2 °F 1017.8 in North 1.9 mph   38 % 0.0 in 603.0 W/m2 CLR
17:49 27.8 °F 11.8 °F 1017.8 in North 11.1 mph 11.1 mph 37 % 0.0 in 589.0 W/m2 CLR
17:54 27.9 °F 11.9 °F 1017.8 in NE 5.6 mph   37 % 0.0 in 575.0 W/m2 CLR
17:55 27.9 °F 11.9 °F 1017.8 in NE 6.4 mph 6.4 mph 37 % 0.0 in 571.0 W/m2 CLR
18:00 28.2 °F 11.7 °F 1017.8 in NNW 9.3 mph 9.3 mph 36 % 0.0 in 557.0 W/m2 CLR
18:05 28.2 °F 11.3 °F 1017.8 in Calm     35 % 0.0 in 545.0 W/m2 CLR
18:10 28.3 °F 11.3 °F 1017.8 in NE 14.8 mph 14.8 mph 35 % 0.0 in 529.0 W/m2 CLR
18:15 28.2 °F 11.7 °F 1017.8 in NE 11.1 mph 11.1 mph 36 % 0.0 in 513.0 W/m2 CLR
18:20 28.2 °F 11.7 °F 1017.8 in North 1.9 mph   36 % 0.0 in 501.0 W/m2 CLR
18:25 27.8 °F 13.4 °F 1017.8 in ENE 14.8 mph 14.8 mph 41 % 0.0 in 483.0 W/m2 CLR
18:30 27.5 °F 13.4 °F 1017.5 in East 9.3 mph 9.3 mph 42 % 0.0 in 466.0 W/m2 CLR
18:35 27.3 °F 13.6 °F 1017.5 in ENE 7.4 mph 7.4 mph 43 % 0.0 in 448.0 W/m2 CLR
18:40 26.9 °F 12.9 °F 1017.5 in ESE 9.3 mph 9.3 mph 42 % 0.0 in 432.0 W/m2 CLR
18:45 26.8 °F 13.2 °F 1017.5 in Calm     43 % 0.0 in 417.0 W/m2 CLR
18:50 26.9 °F 13.3 °F 1017.5 in ESE 7.4 mph 7.4 mph 43 % 0.0 in 401.0 W/m2 CLR
18:55 26.9 °F 13.3 °F 1017.5 in ENE 9.3 mph 9.3 mph 43 % 0.0 in 387.0 W/m2 CLR
19:00 27.0 °F 13.3 °F 1017.5 in Calm     43 % 0.0 in 371.0 W/m2 CLR
19:05 27.0 °F 13.3 °F 1017.5 in East 9.3 mph 9.3 mph 43 % 0.0 in 359.0 W/m2 CLR
19:10 26.8 °F 13.8 °F 1017.5 in East 9.3 mph 9.3 mph 45 % 0.0 in 343.0 W/m2 CLR
19:15 26.5 °F 13.6 °F 1017.5 in ESE 9.3 mph 9.3 mph 45 % 0.0 in 323.0 W/m2 CLR
19:20 26.3 °F 13.4 °F 1017.5 in SE 9.3 mph 9.3 mph 45 % 0.0 in 308.0 W/m2 CLR
19:23 26.3 °F 13.4 °F 1017.5 in SE 5.6 mph 5.6 mph 45 % 0.0 in 297.0 W/m2 CLR
19:28 26.3 °F 13.4 °F 1017.5 in SE 6.4 mph 6.4 mph 45 % 0.0 in 283.0 W/m2 CLR
19:33 26.1 °F 14.6 °F 1017.5 in ESE 19.3 mph 19.3 mph 49 % 0.0 in 267.0 W/m2 CLR
19:38 25.8 °F 14.6 °F 1017.5 in SE 13.0 mph 13.0 mph 50 % 0.0 in 251.0 W/m2 CLR
19:43 25.7 °F 14.4 °F 1017.5 in SE 14.8 mph 14.8 mph 50 % 0.0 in 237.0 W/m2 CLR
19:48 25.6 °F 14.7 °F 1017.5 in ESE 14.8 mph 14.8 mph 51 % 0.0 in 218.0 W/m2 CLR
19:53 25.6 °F 14.7 °F 1017.5 in ESE 16.7 mph 16.7 mph 51 % 0.0 in 202.0 W/m2 CLR
19:58 25.4 °F 14.6 °F 1017.5 in SE 14.8 mph 14.8 mph 51 % 0.0 in 185.0 W/m2 CLR
20:03 25.4 °F 14.5 °F 1017.5 in SE 7.4 mph 7.4 mph 51 % 0.0 in 169.0 W/m2 CLR
20:08 25.4 °F 14.8 °F 1017.5 in East 16.7 mph 16.7 mph 52 % 0.0 in 149.0 W/m2 CLR
20:09 25.4 °F 15.1 °F 1017.5 in ESE 14.8 mph 14.8 mph 53 % 0.0 in 148.0 W/m2 CLR
20:14 25.2 °F 15.3 °F 1017.5 in SE 9.3 mph 9.3 mph 54 % 0.0 in 132.0 W/m2 CLR
20:19 25.1 °F 15.2 °F 1017.5 in SE 13.0 mph 13.0 mph 54 % 0.0 in 116.0 W/m2 CLR
20:24 25.1 °F 15.1 °F 1017.5 in ESE 7.4 mph 7.4 mph 54 % 0.0 in 98.0 W/m2 CLR
20:29 24.9 °F 14.9 °F 1017.8 in East 16.7 mph 16.7 mph 54 % 0.0 in 84.0 W/m2 CLR
20:34 24.8 °F 15.4 °F 1017.8 in East 11.1 mph 11.1 mph 56 % 0.0 in 72.0 W/m2 FEW
20:39 24.7 °F 15.9 °F 1017.8 in ESE 11.3 mph 11.3 mph 58 % 0.0 in 62.0 W/m2 SCT
20:44 24.4 °F 16.2 °F 1017.8 in SE 13.0 mph 13.0 mph 60 % 0.0 in 35.0 W/m2 BKN
20:49 24.3 °F 16.0 °F 1017.8 in ESE 7.4 mph 7.4 mph 60 % 0.0 in 35.0 W/m2 BKN
20:54 24.2 °F 16.2 °F 1017.8 in SE 5.6 mph 5.6 mph 61 % 0.0 in 28.0 W/m2 BKN
20:59 24.1 °F 16.3 °F 1017.8 in ESE 7.4 mph 7.4 mph 62 % 0.0 in 21.0 W/m2 BKN
21:04 23.8 °F 16.4 °F 1017.8 in East 9.3 mph 9.3 mph 63 % 0.0 in 16.0 W/m2 BKN
21:09 23.6 °F 16.4 °F 1017.8 in ESE 11.3 mph 11.3 mph 64 % 0.0 in 12.0 W/m2 BKN
21:14 23.4 °F 16.4 °F 1017.8 in SE 11.1 mph 11.1 mph 65 % 0.0 in 11.0 W/m2 BKN
21:19 23.2 °F 16.4 °F 1017.8 in ESE 11.1 mph 11.1 mph 66 % 0.0 in 9.0 W/m2 BKN
21:24 22.9 °F 16.5 °F 1017.8 in East 9.3 mph 9.3 mph 67 % 0.0 in 7.0 W/m2 BKN
21:29 22.8 °F 16.6 °F 1018.2 in ESE 9.3 mph 9.3 mph 68 % 0.0 in 0.0 W/m2 OVC
21:30 22.8 °F 16.6 °F 1018.2 in ESE 9.3 mph 9.3 mph 68 % 0.0 in 0.0 W/m2 OVC
21:35 22.6 °F 16.3 °F 1018.2 in Calm     68 % 0.0 in 0.0 W/m2 OVC
21:40 22.4 °F 16.4 °F 1018.2 in Calm     69 % 0.0 in 0.0 W/m2 OVC
21:45 22.2 °F 16.5 °F 1018.2 in SE 4.8 mph 4.8 mph 70 % 0.0 in 0.0 W/m2 CLR
21:50 22.0 °F 16.3 °F 1018.5 in SE 7.4 mph 7.4 mph 70 % 0.0 in 0.0 W/m2 CLR
21:55 21.8 °F 16.3 °F 1018.5 in SE 11.1 mph 11.1 mph 71 % 0.0 in 0.0 W/m2 CLR
22:00 21.6 °F 16.3 °F 1018.5 in East 9.3 mph 9.3 mph 72 % 0.0 in 0.0 W/m2 CLR
22:05 21.5 °F 16.2 °F 1018.5 in East 5.6 mph   72 % 0.0 in 0.0 W/m2 CLR
22:10 21.4 °F 16.3 °F 1018.5 in East 4.8 mph 4.8 mph 73 % 0.0 in 0.0 W/m2 CLR
22:15 21.3 °F 16.3 °F 1018.5 in East 4.8 mph 4.8 mph 73 % 0.0 in 0.0 W/m2 CLR
22:20 21.2 °F 16.3 °F 1018.5 in East 5.6 mph 5.6 mph 74 % 0.0 in 0.0 W/m2 CLR
22:25 21.0 °F 16.4 °F 1018.5 in East 4.8 mph 4.8 mph 75 % 0.0 in 0.0 W/m2 CLR
22:30 20.8 °F 16.2 °F 1018.5 in Calm     75 % 0.0 in 0.0 W/m2 CLR
22:35 20.7 °F 16.3 °F 1018.8 in ESE 3.7 mph   76 % 0.0 in 0.0 W/m2 CLR
22:40 20.5 °F 16.3 °F 1018.8 in East 5.6 mph 5.6 mph 77 % 0.0 in 0.0 W/m2 CLR
22:45 20.4 °F 16.2 °F 1018.8 in East 5.6 mph 5.6 mph 77 % 0.0 in 0.0 W/m2 CLR
22:50 20.3 °F 16.4 °F 1018.5 in ESE 7.4 mph 7.4 mph 78 % 0.0 in 0.0 W/m2 CLR
22:55 20.3 °F 16.4 °F 1018.8 in Calm     78 % 0.0 in 0.0 W/m2 CLR
23:00 20.3 °F 16.3 °F 1018.8 in Calm     78 % 0.0 in 0.0 W/m2 CLR
23:05 20.2 °F 16.3 °F 1018.8 in Calm     78 % 0.0 in 0.0 W/m2 CLR
23:10 20.2 °F 16.2 °F 1018.8 in Calm     78 % 0.0 in 0.0 W/m2 CLR
23:15 20.1 °F 16.2 °F 1018.8 in Calm     78 % 0.0 in 0.0 W/m2 CLR
23:20 20.0 °F 16.2 °F 1018.8 in Calm     79 % 0.0 in 0.0 W/m2 CLR
23:25 19.9 °F 16.1 °F 1018.8 in Calm     79 % 0.0 in 0.0 W/m2 CLR
23:30 19.7 °F 16.2 °F 1018.8 in Calm     80 % 0.0 in 0.0 W/m2 CLR
23:35 19.7 °F 16.1 °F 1018.8 in Calm     80 % 0.0 in 0.0 W/m2 CLR
23:40 19.6 °F 16.2 °F 1018.8 in Calm     81 % 0.0 in 0.0 W/m2 CLR
23:45 19.5 °F 16.2 °F 1018.5 in Calm     81 % 0.0 in 0.0 W/m2 CLR
23:50 19.4 °F 16.1 °F 1018.5 in Calm     81 % 0.0 in 0.0 W/m2 CLR
23:55 19.4 °F 16.1 °F 1018.5 in Calm     81 % 0.0 in 0.0 W/m2 CLR
Lo Temps de Massalio
Compliments of Weather Underground - 1.25 mb